Time;durP1;ratioP1;P1;durP2;ratioP2;P2;SDS_P1;SDS_P2;PMS_P1;PMS_P2;Temp;Humidity;BMP_temperature;BMP_pressure;BME280_temperature;BME280_humidity;BME280_pressure;Samples;Min_cycle;Max_cycle;Signal;HPM_P1;HPM_P2
2023/12/05 00:02:49;;;;;;;;;;;;;;;19.40;29.82;94652.84;10501943;28;2899;-47
2023/12/05 00:07:50;;;;;;;;;;;;;;;19.41;29.86;94646.50;10492781;28;2801;-45
2023/12/05 00:12:50;;;;;;;;;;;;;;;19.37;29.83;94663.94;10497938;28;2785;-48
2023/12/05 00:17:50;;;;;;;;;;;;;;;19.37;30.16;94644.78;10503727;28;3014;-48
2023/12/05 00:22:50;;;;;;;;;;;;;;;19.39;29.88;94651.28;10502072;28;2781;-47
2023/12/05 00:27:51;;;;;;;;;;;;;;;19.38;29.89;94669.97;10505777;28;2864;-46
2023/12/05 00:32:51;;;;;;;;;;;;;;;19.33;29.96;94689.22;10504605;28;2821;-45
2023/12/05 00:37:51;;;;;;;;;;;;;;;19.35;30.12;94697.59;10504087;28;2882;-47
2023/12/05 00:42:52;;;;;;;;;;;;;;;19.37;29.63;94695.47;10504018;28;2770;-49
2023/12/05 00:47:52;;;;;;;;;;;;;;;19.35;29.94;94715.25;10510214;28;4616;-49
2023/12/05 00:52:53;;;;;;;;;;;;;;;19.36;30.02;94704.44;10498613;28;3002;-46
2023/12/05 00:57:53;;;;;;;;;;;;;;;19.35;29.88;94718.63;10494632;28;2789;-48
2023/12/05 01:02:53;;;;;;;;;;;;;;;19.32;29.96;94721.81;10509265;28;2831;-46
2023/12/05 01:07:56;;;;;;;;;;;;;;;19.30;29.98;94726.59;10505373;28;2802;-46
2023/12/05 01:12:56;;;;;;;;;;;;;;;19.34;29.67;94750.47;10504418;28;2913;-47
2023/12/05 01:17:57;;;;;;;;;;;;;;;19.31;29.78;94737.84;10503455;28;2979;-46
2023/12/05 01:22:57;;;;;;;;;;;;;;;19.30;29.93;94734.47;10503319;28;2845;-46
2023/12/05 01:27:58;;;;;;;;;;;;;;;19.31;29.92;94743.91;10504368;28;2850;-46
2023/12/05 01:32:58;;;;;;;;;;;;;;;19.33;29.93;94744.41;10508215;28;2976;-50
2023/12/05 01:37:58;;;;;;;;;;;;;;;19.34;29.78;94743.38;10503648;28;2805;-46
2023/12/05 01:42:59;;;;;;;;;;;;;;;19.34;29.92;94740.72;10498964;28;3261;-47
2023/12/05 01:47:59;;;;;;;;;;;;;;;19.34;29.57;94730.22;10504411;28;4974;-49
2023/12/05 01:53:02;;;;;;;;;;;;;;;19.36;29.60;94735.97;10501621;28;2863;-47
2023/12/05 01:58:03;;;;;;;;;;;;;;;19.37;29.88;94729.63;10497411;28;2869;-46
2023/12/05 02:03:04;;;;;;;;;;;;;;;19.38;29.77;94719.91;10491032;28;2998;-47
2023/12/05 02:08:04;;;;;;;;;;;;;;;19.37;29.65;94705.97;10489687;28;2808;-49
2023/12/05 02:13:05;;;;;;;;;;;;;;;19.39;29.62;94721.47;10492508;28;2907;-47
2023/12/05 02:18:05;;;;;;;;;;;;;;;19.40;29.65;94731.69;10500366;28;2866;-50
2023/12/05 02:23:15;;;;;;;;;;;;;;;19.41;29.74;94732.47;10496833;28;2916;-46
2023/12/05 02:28:16;;;;;;;;;;;;;;;19.41;29.74;94729.84;10494400;28;2896;-47
2023/12/05 02:33:16;;;;;;;;;;;;;;;19.41;29.61;94711.44;10499491;28;2913;-50
2023/12/05 02:38:45;;;;;;;;;;;;;;;19.42;29.43;94713.78;10490348;28;2884;-46
2023/12/05 02:43:46;;;;;;;;;;;;;;;19.43;29.73;94714.56;10475351;28;4617;-49
2023/12/05 02:48:46;;;;;;;;;;;;;;;19.44;29.42;94718.75;10491544;28;2889;-46
2023/12/05 02:53:47;;;;;;;;;;;;;;;19.45;29.77;94712.44;10496739;28;2942;-46
2023/12/05 02:58:47;;;;;;;;;;;;;;;19.45;29.73;94712.44;10493503;28;2760;-50
2023/12/05 03:03:47;;;;;;;;;;;;;;;19.45;29.44;94749.97;10497111;28;2841;-47
2023/12/05 03:08:48;;;;;;;;;;;;;;;19.44;29.54;94724.78;10496983;28;3320;-45
2023/12/05 03:13:48;;;;;;;;;;;;;;;19.45;29.42;94715.06;10492913;28;2888;-48
2023/12/05 03:18:48;;;;;;;;;;;;;;;19.44;29.55;94706.38;10495417;28;3068;-51
2023/12/05 03:23:48;;;;;;;;;;;;;;;19.44;29.56;94700.34;10494233;28;2927;-46
2023/12/05 03:28:49;;;;;;;;;;;;;;;19.45;29.63;94697.41;10496504;28;2797;-46
2023/12/05 03:33:49;;;;;;;;;;;;;;;19.46;29.54;94687.69;10492735;28;3035;-54
2023/12/05 03:38:50;;;;;;;;;;;;;;;19.47;29.70;94689.25;10491380;28;2899;-46
2023/12/05 03:43:50;;;;;;;;;;;;;;;19.48;29.41;94686.34;10485121;28;4728;-48
2023/12/05 03:48:50;;;;;;;;;;;;;;;19.49;29.50;94687.88;10494938;28;2888;-48
2023/12/05 03:53:50;;;;;;;;;;;;;;;19.51;29.76;94684.97;10495291;28;2848;-52
2023/12/05 03:58:51;;;;;;;;;;;;;;;19.52;29.39;94689.16;10490241;28;2893;-52
2023/12/05 04:03:51;;;;;;;;;;;;;;;19.51;29.83;94694.72;10492524;28;2862;-47
2023/12/05 04:08:51;;;;;;;;;;;;;;;19.54;29.65;94702.03;10490074;28;2961;-47
2023/12/05 04:13:51;;;;;;;;;;;;;;;19.54;29.73;94707.28;10496329;28;2815;-48
2023/12/05 04:18:52;;;;;;;;;;;;;;;19.54;29.82;94715.16;10491559;28;2824;-47
2023/12/05 04:23:52;;;;;;;;;;;;;;;19.56;29.53;94702.50;10492327;28;2908;-48
2023/12/05 04:28:55;;;;;;;;;;;;;;;19.57;29.75;94693.53;10494987;28;2832;-47
2023/12/05 04:33:55;;;;;;;;;;;;;;;19.56;29.81;94695.38;10494007;28;2844;-50
2023/12/05 04:38:56;;;;;;;;;;;;;;;19.59;29.68;94699.28;10495441;28;2901;-47
2023/12/05 04:43:56;;;;;;;;;;;;;;;19.58;29.53;94700.38;10498925;28;2885;-46
2023/12/05 04:48:56;;;;;;;;;;;;;;;19.58;29.85;94706.38;10492455;28;2897;-49
2023/12/05 04:53:57;;;;;;;;;;;;;;;19.59;29.60;94689.56;10490006;28;2897;-49
2023/12/05 04:58:57;;;;;;;;;;;;;;;19.60;29.55;94704.25;10489179;28;2899;-51
2023/12/05 05:03:59;;;;;;;;;;;;;;;19.60;29.44;94711.38;10500015;28;2945;-46
2023/12/05 05:09:00;;;;;;;;;;;;;;;19.62;29.35;94706.59;10505538;28;2856;-49
2023/12/05 05:14:00;;;;;;;;;;;;;;;19.59;29.66;94713.22;10500530;28;2766;-47
2023/12/05 05:19:00;;;;;;;;;;;;;;;19.59;29.49;94722.94;10498165;28;2884;-48
2023/12/05 05:24:00;;;;;;;;;;;;;;;19.58;29.69;94716.13;10498134;28;2903;-49
2023/12/05 05:29:02;;;;;;;;;;;;;;;19.56;29.60;94729.56;10501992;28;3061;-47
2023/12/05 05:34:03;;;;;;;;;;;;;;;19.56;29.75;94734.81;10497226;28;2822;-45
2023/12/05 05:39:04;;;;;;;;;;;;;;;19.57;29.61;94714.56;10497298;28;2907;-47
2023/12/05 05:44:05;;;;;;;;;;;;;;;19.54;29.69;94709.91;10496602;28;4683;-46
2023/12/05 05:49:05;;;;;;;;;;;;;;;19.54;29.51;94723.06;10496155;28;2870;-45
2023/12/05 05:54:05;;;;;;;;;;;;;;;19.55;29.41;94719.34;10495683;28;2873;-47
2023/12/05 05:59:05;;;;;;;;;;;;;;;19.55;29.54;94732.47;10498118;28;2793;-48
2023/12/05 06:04:06;;;;;;;;;;;;;;;19.54;29.52;94726.44;10498960;28;2790;-48
2023/12/05 06:09:06;;;;;;;;;;;;;;;19.54;29.58;94723.81;10494760;28;2866;-47
2023/12/05 06:14:06;;;;;;;;;;;;;;;19.54;29.27;94730.94;10501021;28;2827;-45
2023/12/05 06:19:06;;;;;;;;;;;;;;;19.52;29.34;94733.03;10501671;28;2863;-46
2023/12/05 06:24:09;;;;;;;;;;;;;;;19.51;29.26;94739.38;10499766;28;2841;-47
2023/12/05 06:29:09;;;;;;;;;;;;;;;19.50;29.67;94738.59;10497601;28;2848;-43
2023/12/05 06:34:10;;;;;;;;;;;;;;;19.54;29.74;94747.47;10493804;28;2974;-47
2023/12/05 06:39:10;;;;;;;;;;;;;;;19.56;29.76;94736.69;10489019;28;2852;-49
2023/12/05 06:44:11;;;;;;;;;;;;;;;19.53;29.81;94739.88;10487505;28;4699;-50
2023/12/05 06:49:11;;;;;;;;;;;;;;;19.45;29.40;94749.22;10487759;28;2858;-49
2023/12/05 06:54:11;;;;;;;;;;;;;;;19.41;29.28;94748.25;10490445;28;2809;-45
2023/12/05 07:04:49;;;;;;;;;;;;;;;19.42;29.81;94757.69;10482984;28;2841;-48
2023/12/05 07:09:50;;;;;;;;;;;;;;;19.40;29.86;94765.84;10489261;28;2867;-47
2023/12/05 07:14:51;;;;;;;;;;;;;;;19.41;29.49;94770.03;10490712;28;2862;-46
2023/12/05 07:19:51;;;;;;;;;;;;;;;19.38;29.29;94768.00;10487302;28;2839;-50
2023/12/05 07:24:51;;;;;;;;;;;;;;;19.40;29.18;94773.75;10491682;28;2805;-51
2023/12/05 07:29:51;;;;;;;;;;;;;;;19.40;29.52;94784.25;10490852;28;2910;-48
2023/12/05 07:34:52;;;;;;;;;;;;;;;19.40;29.90;94789.50;10492279;28;2842;-50
2023/12/05 07:39:52;;;;;;;;;;;;;;;19.48;29.94;94790.69;10512015;28;2780;-48
2023/12/05 07:44:55;;;;;;;;;;;;;;;19.52;29.88;94790.88;10514651;28;4760;-49
2023/12/05 07:49:55;;;;;;;;;;;;;;;19.53;30.17;94802.97;10511419;28;2387;-47
2023/12/05 07:54:56;;;;;;;;;;;;;;;19.54;30.38;94805.28;10513462;28;2200;-46
2023/12/05 07:59:56;;;;;;;;;;;;;;;19.56;29.98;94802.41;10511678;28;1561;-47
2023/12/05 08:04:57;;;;;;;;;;;;;;;19.56;29.98;94795.28;10514099;28;1906;-46
2023/12/05 08:09:57;;;;;;;;;;;;;;;19.57;29.97;94788.97;10513069;28;1820;-45
2023/12/05 08:14:57;;;;;;;;;;;;;;;19.57;30.02;94785.53;10517924;28;1891;-46
2023/12/05 08:19:58;;;;;;;;;;;;;;;19.59;30.07;94796.53;10514293;28;1842;-47
2023/12/05 08:24:58;;;;;;;;;;;;;;;19.59;30.11;94796.53;10519312;28;1910;-46
2023/12/05 08:29:58;;;;;;;;;;;;;;;19.60;30.02;94795.50;10508820;28;2148;-46
2023/12/05 08:34:59;;;;;;;;;;;;;;;19.59;29.99;94802.59;10518685;28;2112;-48
2023/12/05 08:39:59;;;;;;;;;;;;;;;19.61;30.04;94810.19;10509119;28;2869;-47
2023/12/05 08:45:00;;;;;;;;;;;;;;;19.61;30.07;94812.81;10510000;28;4557;-46
2023/12/05 08:50:00;;;;;;;;;;;;;;;19.63;29.78;94818.56;10508329;28;2921;-48
2023/12/05 08:55:01;;;;;;;;;;;;;;;19.63;29.72;94829.84;10496877;28;2862;-47
2023/12/05 09:00:04;;;;;;;;;;;;;;;19.63;29.58;94824.59;10496912;28;2907;-48
2023/12/05 09:05:05;;;;;;;;;;;;;;;19.61;30.08;94826.75;10511900;28;2839;-48
2023/12/05 09:10:05;;;;;;;;;;;;;;;19.62;29.83;94827.53;10494761;28;2934;-46
2023/12/05 09:15:06;;;;;;;;;;;;;;;19.62;29.99;94835.41;10503212;28;2904;-49
2023/12/05 09:20:06;;;;;;;;;;;;;;;19.62;30.01;94833.53;10493440;28;3218;-50
2023/12/05 09:25:06;;;;;;;;;;;;;;;19.61;30.02;94836.47;10497878;28;2948;-46
2023/12/05 09:30:07;;;;;;;;;;;;;;;19.58;30.08;94829.94;10498117;28;2910;-49
2023/12/05 09:35:07;;;;;;;;;;;;;;;19.58;30.15;94832.56;10499077;28;3317;-47
2023/12/05 09:40:08;;;;;;;;;;;;;;;19.60;29.74;94827.03;10494777;28;2878;-46
2023/12/05 09:45:09;;;;;;;;;;;;;;;19.62;30.10;94824.91;10491310;28;4660;-49
2023/12/05 09:50:09;;;;;;;;;;;;;;;19.63;29.85;94829.06;10495939;28;2884;-48
2023/12/05 09:55:10;;;;;;;;;;;;;;;19.65;29.83;94821.69;10512170;28;2936;-51
2023/12/05 10:00:10;;;;;;;;;;;;;;;19.64;29.75;94820.13;10524682;27;2798;-49
2023/12/05 10:05:11;;;;;;;;;;;;;;;19.67;30.11;94819.53;10495138;28;2989;-46
2023/12/05 10:10:11;;;;;;;;;;;;;;;19.68;29.79;94807.97;10504021;28;2939;-47
2023/12/05 10:15:11;;;;;;;;;;;;;;;19.71;29.99;94795.00;10502454;28;2918;-49
2023/12/05 10:20:11;;;;;;;;;;;;;;;19.74;29.69;94797.03;10500164;28;2882;-47
2023/12/05 10:25:14;;;;;;;;;;;;;;;19.75;29.87;94790.72;10493039;28;2758;-47
2023/12/05 10:30:21;;;;;;;;;;;;;;;19.74;30.04;94796.28;10498428;28;2951;-45
2023/12/05 10:35:28;;;;;;;;;;;;;;;19.73;30.12;94792.88;10475922;28;2867;-49
2023/12/05 10:40:28;;;;;;;;;;;;;;;19.75;29.92;94795.19;10506563;28;3199;-51
2023/12/05 10:45:28;;;;;;;;;;;;;;;19.74;30.09;94794.41;10493045;28;4608;-48
2023/12/05 10:50:29;;;;;;;;;;;;;;;19.75;30.22;94800.47;10503058;28;3120;-48
2023/12/05 10:55:29;;;;;;;;;;;;;;;19.76;30.25;94802.03;10516471;28;2796;-47
2023/12/05 11:00:33;;;;;;;;;;;;;;;19.78;30.23;94799.91;10514878;28;2381;-48
2023/12/05 11:05:33;;;;;;;;;;;;;;;19.81;30.40;94801.94;10515731;28;1922;-49
2023/12/05 11:10:33;;;;;;;;;;;;;;;19.83;30.89;94794.53;10515760;28;2183;-46
2023/12/05 11:15:34;;;;;;;;;;;;;;;19.87;31.53;94795.50;10518400;28;1542;-47
2023/12/05 11:21:11;;;;;;;;;;;;;;;19.93;32.46;94792.50;10509058;28;2856;-45
2023/12/05 11:26:26;;;;;;;;;;;;;;;20.01;32.76;94786.53;10457293;28;2967;-46
2023/12/05 11:31:30;;;;;;;;;;;;;;;20.02;32.30;94789.97;10506384;28;2721;-46
2023/12/05 11:36:34;;;;;;;;;;;;;;;20.00;32.52;94797.38;10497064;28;2805;-50
2023/12/05 11:41:34;;;;;;;;;;;;;;;19.99;32.12;94808.97;10499314;28;2817;-46
2023/12/05 11:46:35;;;;;;;;;;;;;;;19.96;32.09;94809.53;10498224;28;4427;-47
2023/12/05 11:51:38;;;;;;;;;;;;;;;19.95;32.01;94810.59;10486726;28;2941;-44
2023/12/05 11:56:38;;;;;;;;;;;;;;;19.93;32.02;94813.53;10508436;28;2848;-44
2023/12/05 12:01:38;;;;;;;;;;;;;;;19.92;31.59;94817.25;10499680;28;2872;-47
2023/12/05 12:06:39;;;;;;;;;;;;;;;19.92;31.57;94809.34;10501021;28;2777;-48
2023/12/05 12:11:39;;;;;;;;;;;;;;;19.91;31.58;94813.03;10505332;28;3025;-45
2023/12/05 12:16:39;;;;;;;;;;;;;;;19.92;31.68;94806.72;10505348;28;2849;-48
2023/12/05 12:21:40;;;;;;;;;;;;;;;19.92;31.24;94808.56;10507374;28;2833;-46
2023/12/05 12:26:42;;;;;;;;;;;;;;;19.93;31.37;94823.25;10529531;27;2832;-46
2023/12/05 12:31:43;;;;;;;;;;;;;;;19.91;31.50;94812.25;10482719;28;2919;-45
2023/12/05 12:36:44;;;;;;;;;;;;;;;19.91;31.62;94813.03;10515464;28;2818;-47
2023/12/05 12:41:45;;;;;;;;;;;;;;;19.92;31.48;94821.72;10502985;28;2781;-48
2023/12/05 12:46:45;;;;;;;;;;;;;;;19.93;31.87;94813.53;10506095;28;4648;-47
2023/12/05 12:51:46;;;;;;;;;;;;;;;19.92;31.97;94811.97;10499107;28;2777;-48
2023/12/05 12:56:46;;;;;;;;;;;;;;;19.92;32.17;94811.19;10511493;28;2804;-47
2023/12/05 13:01:47;;;;;;;;;;;;;;;19.92;32.38;94809.34;10502058;28;2922;-50
2023/12/05 13:06:47;;;;;;;;;;;;;;;19.91;32.24;94802.53;10506464;28;2825;-47
2023/12/05 13:11:47;;;;;;;;;;;;;;;19.91;32.02;94799.88;10499045;28;2816;-47
2023/12/05 13:16:47;;;;;;;;;;;;;;;19.92;32.26;94806.72;10503514;28;2830;-46
2023/12/05 13:21:48;;;;;;;;;;;;;;;19.90;31.97;94806.25;10503429;28;3272;-46
2023/12/05 13:26:51;;;;;;;;;;;;;;;19.89;31.96;94811.78;10492319;28;2967;-45
2023/12/05 13:31:52;;;;;;;;;;;;;;;19.88;31.84;94815.47;10495789;28;3209;-47
2023/12/05 13:36:52;;;;;;;;;;;;;;;19.89;31.84;94815.19;10502764;28;3144;-47
2023/12/05 13:41:52;;;;;;;;;;;;;;;19.87;31.88;94816.53;10500239;28;2909;-45
2023/12/05 13:46:52;;;;;;;;;;;;;;;19.86;31.77;94818.41;10492311;28;4672;-46
2023/12/05 13:51:53;;;;;;;;;;;;;;;19.85;31.96;94819.47;10496345;28;2794;-45
2023/12/05 13:56:53;;;;;;;;;;;;;;;19.86;31.55;94825.50;10515457;28;2766;-46
2023/12/05 14:01:53;;;;;;;;;;;;;;;19.81;31.60;94831.63;10495118;28;2883;-48
2023/12/05 14:06:53;;;;;;;;;;;;;;;19.83;31.61;94828.72;10502077;28;2911;-48
2023/12/05 14:11:54;;;;;;;;;;;;;;;19.83;31.82;94831.34;10504115;28;2804;-47
2023/12/05 14:16:54;;;;;;;;;;;;;;;19.85;31.60;94837.88;10491646;28;2858;-45
2023/12/05 14:21:54;;;;;;;;;;;;;;;19.84;31.86;94832.91;10493684;28;2895;-48
2023/12/05 14:26:55;;;;;;;;;;;;;;;19.84;31.79;94838.19;10493734;28;3288;-47
2023/12/05 14:31:55;;;;;;;;;;;;;;;19.84;31.76;94841.59;10485014;28;2885;-47
2023/12/05 14:36:56;;;;;;;;;;;;;;;19.83;31.83;94841.84;10498875;28;2770;-46
2023/12/05 14:41:56;;;;;;;;;;;;;;;19.82;31.72;94843.72;10494216;28;2867;-45
2023/12/05 14:47:02;;;;;;;;;;;;;;;19.81;31.89;94860.56;10507669;28;4753;-48
2023/12/05 14:52:03;;;;;;;;;;;;;;;19.83;31.37;94865.53;10500567;28;2904;-46
2023/12/05 14:57:04;;;;;;;;;;;;;;;19.82;31.85;94864.78;10495212;28;2814;-44
2023/12/05 15:02:04;;;;;;;;;;;;;;;19.83;31.64;94874.22;10487825;28;2809;-49
2023/12/05 15:07:04;;;;;;;;;;;;;;;19.82;31.51;94867.41;10492813;28;2801;-45
2023/12/05 15:12:05;;;;;;;;;;;;;;;19.83;31.46;94865.53;10502048;28;2932;-46
2023/12/05 15:17:06;;;;;;;;;;;;;;;19.82;31.56;94869.25;10490591;28;2793;-46
2023/12/05 15:22:07;;;;;;;;;;;;;;;19.82;31.47;94879.75;10486072;28;2859;-44
2023/12/05 15:27:07;;;;;;;;;;;;;;;19.81;31.36;94883.44;10489983;28;2853;-44
2023/12/05 15:32:07;;;;;;;;;;;;;;;19.80;31.43;94882.69;10491130;28;2809;-43
2023/12/05 15:37:08;;;;;;;;;;;;;;;19.81;31.44;94893.97;10500267;28;2843;-48
2023/12/05 15:42:08;;;;;;;;;;;;;;;19.80;31.45;94898.47;10494350;28;2825;-45
2023/12/05 15:47:08;;;;;;;;;;;;;;;19.80;31.50;94895.84;10495554;28;4471;-48
2023/12/05 15:52:08;;;;;;;;;;;;;;;19.79;31.35;94902.16;10492846;28;2955;-46
2023/12/05 15:57:09;;;;;;;;;;;;;;;19.79;31.64;94899.53;10491028;28;2931;-45
2023/12/05 16:02:09;;;;;;;;;;;;;;;19.77;31.28;94898.25;10499675;28;2882;-47
2023/12/05 16:07:10;;;;;;;;;;;;;;;19.80;31.46;94898.47;10499788;27;2814;-45
2023/12/05 16:12:10;;;;;;;;;;;;;;;19.78;31.28;94905.88;10496598;28;2891;-51
2023/12/05 16:17:11;;;;;;;;;;;;;;;19.78;31.29;94905.06;10492737;28;2841;-45
2023/12/05 16:22:12;;;;;;;;;;;;;;;19.79;31.07;94914.50;10498895;28;2828;-47
2023/12/05 16:27:13;;;;;;;;;;;;;;;19.79;31.44;94911.88;10489170;28;2823;-45
2023/12/05 16:32:14;;;;;;;;;;;;;;;19.80;31.15;94916.88;10494481;28;2975;-45
2023/12/05 16:37:14;;;;;;;;;;;;;;;19.81;31.22;94921.06;10495204;28;2773;-45
2023/12/05 16:42:14;;;;;;;;;;;;;;;19.81;31.24;94931.56;10493333;28;2828;-46
2023/12/05 16:47:14;;;;;;;;;;;;;;;19.80;31.29;94935.28;10491055;28;4672;-46
2023/12/05 16:52:15;;;;;;;;;;;;;;;19.73;30.76;94937.50;10493630;28;2929;-45
2023/12/05 16:57:15;;;;;;;;;;;;;;;19.77;31.02;94935.06;10505208;28;2928;-49
2023/12/05 17:02:15;;;;;;;;;;;;;;;19.77;31.10;94937.69;10501166;28;2827;-45
2023/12/05 17:07:16;;;;;;;;;;;;;;;19.78;31.24;94934.00;10509112;28;2781;-48
2023/12/05 17:12:16;;;;;;;;;;;;;;;19.78;31.08;94934.78;10504967;28;2819;-48
2023/12/05 17:17:16;;;;;;;;;;;;;;;19.79;31.01;94943.44;10492333;28;3101;-45
2023/12/05 17:22:22;;;;;;;;;;;;;;;19.79;30.96;94938.19;10506417;28;2848;-46
2023/12/05 17:27:22;;;;;;;;;;;;;;;19.79;31.21;94943.44;10501070;28;2809;-46
2023/12/05 17:32:26;;;;;;;;;;;;;;;19.78;31.14;94939.25;10496826;28;2879;-49
2023/12/05 17:37:30;;;;;;;;;;;;;;;19.80;31.12;94939.75;10498248;28;2837;-45
2023/12/05 17:43:02;;;;;;;;;;;;;;;19.75;30.92;94940.59;10499283;28;2893;-47
2023/12/05 17:48:03;;;;;;;;;;;;;;;19.74;31.47;94941.66;10498332;28;2834;-48
2023/12/05 17:53:03;;;;;;;;;;;;;;;19.73;31.40;94949.84;10492049;28;2848;-47
2023/12/05 17:58:04;;;;;;;;;;;;;;;19.74;31.61;94946.91;10489042;28;2947;-46
2023/12/05 18:03:04;;;;;;;;;;;;;;;19.73;31.91;94947.22;10497784;28;2843;-49
2023/12/05 18:08:05;;;;;;;;;;;;;;;19.76;31.83;94944.03;10491626;28;2851;-45
2023/12/05 18:13:05;;;;;;;;;;;;;;;19.77;31.78;94945.56;10489245;28;3324;-46
2023/12/05 18:18:05;;;;;;;;;;;;;;;19.77;31.78;94946.38;10494791;28;2860;-49
2023/12/05 18:23:05;;;;;;;;;;;;;;;19.79;32.21;94951.31;10484749;28;2930;-49
2023/12/05 18:28:06;;;;;;;;;;;;;;;19.81;32.36;94957.06;10491474;28;2865;-47
2023/12/05 18:33:06;;;;;;;;;;;;;;;19.82;32.53;94961.28;10496549;28;2888;-49
2023/12/05 18:38:07;;;;;;;;;;;;;;;19.96;32.93;94962.09;10491416;28;2887;-47
2023/12/05 18:43:07;;;;;;;;;;;;;;;20.08;32.78;94963.22;10489861;28;4592;-52
2023/12/05 18:48:07;;;;;;;;;;;;;;;20.26;31.59;94961.59;10491053;28;2887;-51
2023/12/05 18:53:08;;;;;;;;;;;;;;;20.29;32.36;94982.09;10494553;28;3209;-50
2023/12/05 18:58:08;;;;;;;;;;;;;;;20.36;31.74;94979.84;10498843;28;2808;-53
2023/12/05 19:03:09;;;;;;;;;;;;;;;20.35;31.60;94983.56;10490969;28;2868;-49
2023/12/05 19:08:09;;;;;;;;;;;;;;;20.35;31.11;94982.78;10500417;28;2928;-46
2023/12/05 19:13:09;;;;;;;;;;;;;;;20.33;30.56;94983.09;10498215;28;2832;-48
2023/12/05 19:18:10;;;;;;;;;;;;;;;20.34;31.33;94987.25;10494487;28;2794;-49
2023/12/05 19:23:10;;;;;;;;;;;;;;;20.37;31.20;94989.31;10491453;28;2965;-46
2023/12/05 19:28:11;;;;;;;;;;;;;;;20.33;30.28;94987.56;10489151;28;3020;-46
2023/12/05 19:33:12;;;;;;;;;;;;;;;20.29;31.21;94992.63;10502049;28;2965;-50
2023/12/05 19:38:13;;;;;;;;;;;;;;;20.30;30.73;95002.06;10495803;28;2851;-51
2023/12/05 19:43:13;;;;;;;;;;;;;;;20.29;30.49;95005.78;10496776;28;4633;-53
2023/12/05 19:48:13;;;;;;;;;;;;;;;20.29;30.32;95003.16;10494508;28;2873;-49
2023/12/05 19:53:13;;;;;;;;;;;;;;;20.27;29.96;95003.44;10501810;28;2890;-49
2023/12/05 19:58:15;;;;;;;;;;;;;;;20.30;30.10;95002.06;10492829;28;2904;-48
2023/12/05 20:03:18;;;;;;;;;;;;;;;20.37;30.79;94999.84;10506048;28;3236;-49
2023/12/05 20:08:18;;;;;;;;;;;;;;;20.37;31.62;95006.97;10506331;28;2848;-47
2023/12/05 20:13:18;;;;;;;;;;;;;;;20.39;31.47;95002.97;10489920;28;3261;-45
2023/12/05 20:18:20;;;;;;;;;;;;;;;20.42;32.64;95002.41;10496293;28;2902;-49
2023/12/05 20:23:20;;;;;;;;;;;;;;;20.43;33.39;95011.06;10494653;28;2881;-53
2023/12/05 20:28:20;;;;;;;;;;;;;;;20.46;32.37;95013.13;10490517;28;2926;-49
2023/12/05 20:33:20;;;;;;;;;;;;;;;20.40;31.81;95007.19;10500735;28;2861;-46
2023/12/05 20:38:21;;;;;;;;;;;;;;;20.37;31.55;95006.97;10499399;28;2826;-50
2023/12/05 20:43:21;;;;;;;;;;;;;;;20.37;31.91;95015.66;10497115;28;4672;-46
2023/12/05 20:48:21;;;;;;;;;;;;;;;20.36;31.92;95015.94;10499728;28;2885;-48
2023/12/05 20:53:21;;;;;;;;;;;;;;;20.34;31.57;95023.34;10496789;28;2813;-49
2023/12/05 20:58:22;;;;;;;;;;;;;;;20.35;32.46;95022.25;10497539;28;2851;-49
2023/12/05 21:03:22;;;;;;;;;;;;;;;20.33;32.35;95021.78;10501777;28;2849;-49
2023/12/05 21:08:24;;;;;;;;;;;;;;;20.35;31.75;95025.69;10499073;28;2787;-48
2023/12/05 21:13:24;;;;;;;;;;;;;;;20.35;31.78;95019.63;10495829;28;3259;-48
2023/12/05 21:18:24;;;;;;;;;;;;;;;20.32;32.34;95017.59;10505098;28;2857;-47
2023/12/05 21:23:27;;;;;;;;;;;;;;;20.32;31.75;95018.34;10507099;28;2923;-48
2023/12/05 21:28:27;;;;;;;;;;;;;;;20.31;31.83;95014.19;10497386;28;2877;-50
2023/12/05 21:33:27;;;;;;;;;;;;;;;20.33;31.36;95014.66;10507961;28;2848;-47
2023/12/05 21:38:28;;;;;;;;;;;;;;;20.32;32.46;95014.97;10497848;28;2977;-45
2023/12/05 21:43:28;;;;;;;;;;;;;;;20.33;33.92;95016.50;10499938;28;4597;-50
2023/12/05 21:48:28;;;;;;;;;;;;;;;20.32;34.40;95020.97;10487475;28;2936;-45
2023/12/05 21:53:28;;;;;;;;;;;;;;;20.31;34.52;95016.03;10494215;28;2933;-49
2023/12/05 21:58:29;;;;;;;;;;;;;;;20.27;35.01;95018.44;10502021;28;2857;-48
2023/12/05 22:03:29;;;;;;;;;;;;;;;20.23;34.98;95013.00;10499104;28;2837;-50
2023/12/05 22:08:32;;;;;;;;;;;;;;;20.20;35.10;95010.94;10499401;28;2812;-48
2023/12/05 22:13:32;;;;;;;;;;;;;;;20.17;35.67;95019.34;10502604;28;2801;-49
2023/12/05 22:18:32;;;;;;;;;;;;;;;20.12;35.44;95016.03;10495276;27;2853;-46
2023/12/05 22:23:35;;;;;;;;;;;;;;;20.11;35.57;95031.03;10501910;28;2893;-44
2023/12/05 22:28:35;;;;;;;;;;;;;;;20.09;34.97;95027.91;10499509;28;2837;-51
2023/12/05 22:33:36;;;;;;;;;;;;;;;20.05;35.24;95032.19;10501859;28;2930;-48
2023/12/05 22:38:36;;;;;;;;;;;;;;;20.03;35.51;95028.28;10500322;28;2865;-48
2023/12/05 22:43:37;;;;;;;;;;;;;;;20.00;35.25;95028.84;10490725;28;4730;-49
2023/12/05 22:48:37;;;;;;;;;;;;;;;19.96;35.31;95025.22;10497032;28;3320;-46
2023/12/05 22:53:37;;;;;;;;;;;;;;;19.95;35.49;95026.28;10498404;28;2816;-47
2023/12/05 22:58:38;;;;;;;;;;;;;;;19.93;35.21;95028.44;10490841;28;2953;-46
2023/12/05 23:03:39;;;;;;;;;;;;;;;19.88;35.29;95033.78;10498377;28;2807;-46
2023/12/05 23:08:39;;;;;;;;;;;;;;;19.85;35.38;95029.06;10496854;28;3216;-48
2023/12/05 23:13:40;;;;;;;;;;;;;;;19.80;35.19;95026.53;10494444;28;2867;-49
2023/12/05 23:18:40;;;;;;;;;;;;;;;19.81;34.77;95041.22;10498014;28;2947;-47
2023/12/05 23:23:40;;;;;;;;;;;;;;;19.81;34.55;95028.09;10498352;28;2852;-46
2023/12/05 23:28:41;;;;;;;;;;;;;;;19.78;34.30;95020.78;10494461;28;2939;-49
2023/12/05 23:33:41;;;;;;;;;;;;;;;19.79;33.98;95028.38;10487275;28;3321;-49
2023/12/05 23:38:41;;;;;;;;;;;;;;;19.79;33.52;95030.22;10490241;28;2995;-47
2023/12/05 23:43:41;;;;;;;;;;;;;;;19.75;33.12;95022.13;10500638;28;4625;-45
2023/12/05 23:48:43;;;;;;;;;;;;;;;19.74;33.46;95025.06;10493626;28;2881;-47
2023/12/05 23:53:43;;;;;;;;;;;;;;;19.75;32.82;95027.38;10488048;28;2869;-50
2023/12/05 23:58:43;;;;;;;;;;;;;;;19.72;33.56;95024.56;10493122;28;3268;-50
